sensor_id;sensor_type;location;lat;lon;timestamp;P1;durP1;ratioP1;P2;durP2;ratioP2
14797;SDS011;7490;63.708;20.368;2023-11-22T00:00:53;7.67;;;5.00;;
14797;SDS011;7490;63.708;20.368;2023-11-22T00:03:18;7.07;;;4.10;;
14797;SDS011;7490;63.708;20.368;2023-11-22T00:05:44;8.93;;;4.30;;
14797;SDS011;7490;63.708;20.368;2023-11-22T00:08:10;7.47;;;4.10;;
14797;SDS011;7490;63.708;20.368;2023-11-22T00:10:36;7.45;;;4.45;;
14797;SDS011;7490;63.708;20.368;2023-11-22T00:13:01;5.10;;;3.33;;
14797;SDS011;7490;63.708;20.368;2023-11-22T00:15:27;5.33;;;3.97;;
14797;SDS011;7490;63.708;20.368;2023-11-22T00:17:53;7.10;;;4.60;;
14797;SDS011;7490;63.708;20.368;2023-11-22T00:20:19;7.20;;;4.70;;
14797;SDS011;7490;63.708;20.368;2023-11-22T00:22:46;5.47;;;4.03;;
14797;SDS011;7490;63.708;20.368;2023-11-22T00:25:12;7.82;;;4.65;;
14797;SDS011;7490;63.708;20.368;2023-11-22T00:27:38;6.38;;;4.65;;
14797;SDS011;7490;63.708;20.368;2023-11-22T00:30:05;5.55;;;4.30;;
14797;SDS011;7490;63.708;20.368;2023-11-22T00:32:31;6.65;;;4.72;;
14797;SDS011;7490;63.708;20.368;2023-11-22T00:34:57;3.87;;;3.40;;
14797;SDS011;7490;63.708;20.368;2023-11-22T00:37:23;4.37;;;3.53;;
14797;SDS011;7490;63.708;20.368;2023-11-22T00:39:48;5.23;;;2.90;;
14797;SDS011;7490;63.708;20.368;2023-11-22T00:42:14;3.50;;;3.03;;
14797;SDS011;7490;63.708;20.368;2023-11-22T00:44:40;2.90;;;2.70;;
14797;SDS011;7490;63.708;20.368;2023-11-22T00:47:05;3.47;;;2.80;;
14797;SDS011;7490;63.708;20.368;2023-11-22T00:49:31;2.80;;;2.60;;
14797;SDS011;7490;63.708;20.368;2023-11-22T00:51:57;2.60;;;2.37;;
14797;SDS011;7490;63.708;20.368;2023-11-22T00:54:23;2.47;;;1.93;;
14797;SDS011;7490;63.708;20.368;2023-11-22T00:56:50;2.10;;;1.90;;
14797;SDS011;7490;63.708;20.368;2023-11-22T00:59:15;2.33;;;1.80;;
14797;SDS011;7490;63.708;20.368;2023-11-22T01:01:41;2.10;;;1.90;;
14797;SDS011;7490;63.708;20.368;2023-11-22T01:04:07;1.77;;;1.67;;
14797;SDS011;7490;63.708;20.368;2023-11-22T01:06:33;2.00;;;1.80;;
14797;SDS011;7490;63.708;20.368;2023-11-22T01:08:59;1.83;;;1.73;;
14797;SDS011;7490;63.708;20.368;2023-11-22T01:11:25;2.50;;;1.80;;
14797;SDS011;7490;63.708;20.368;2023-11-22T01:13:51;2.20;;;1.73;;
14797;SDS011;7490;63.708;20.368;2023-11-22T01:16:17;2.43;;;1.53;;
14797;SDS011;7490;63.708;20.368;2023-11-22T01:18:42;2.00;;;1.50;;
14797;SDS011;7490;63.708;20.368;2023-11-22T01:21:11;3.03;;;1.77;;
14797;SDS011;7490;63.708;20.368;2023-11-22T01:23:36;1.50;;;1.30;;
14797;SDS011;7490;63.708;20.368;2023-11-22T01:26:02;1.10;;;1.10;;
14797;SDS011;7490;63.708;20.368;2023-11-22T01:28:28;1.57;;;1.47;;
14797;SDS011;7490;63.708;20.368;2023-11-22T01:30:54;1.00;;;1.00;;
14797;SDS011;7490;63.708;20.368;2023-11-22T01:33:23;1.10;;;1.00;;
14797;SDS011;7490;63.708;20.368;2023-11-22T01:35:49;1.20;;;1.10;;
14797;SDS011;7490;63.708;20.368;2023-11-22T01:38:17;1.30;;;1.20;;
14797;SDS011;7490;63.708;20.368;2023-11-22T01:40:46;1.23;;;1.23;;
14797;SDS011;7490;63.708;20.368;2023-11-22T01:43:13;1.97;;;1.80;;
14797;SDS011;7490;63.708;20.368;2023-11-22T01:45:42;1.30;;;1.20;;
14797;SDS011;7490;63.708;20.368;2023-11-22T01:48:09;1.27;;;1.10;;
14797;SDS011;7490;63.708;20.368;2023-11-22T01:50:39;0.90;;;0.90;;
14797;SDS011;7490;63.708;20.368;2023-11-22T01:53:07;1.33;;;1.23;;
14797;SDS011;7490;63.708;20.368;2023-11-22T01:55:35;1.23;;;1.10;;
14797;SDS011;7490;63.708;20.368;2023-11-22T01:58:02;1.37;;;1.27;;
14797;SDS011;7490;63.708;20.368;2023-11-22T02:00:31;1.00;;;1.00;;
14797;SDS011;7490;63.708;20.368;2023-11-22T02:03:01;1.43;;;1.33;;
14797;SDS011;7490;63.708;20.368;2023-11-22T02:05:27;1.47;;;1.37;;
14797;SDS011;7490;63.708;20.368;2023-11-22T02:07:53;1.30;;;0.93;;
14797;SDS011;7490;63.708;20.368;2023-11-22T02:10:19;1.40;;;1.30;;
14797;SDS011;7490;63.708;20.368;2023-11-22T02:12:45;1.60;;;1.40;;
14797;SDS011;7490;63.708;20.368;2023-11-22T02:15:11;1.70;;;1.30;;
14797;SDS011;7490;63.708;20.368;2023-11-22T02:17:37;1.00;;;1.00;;
14797;SDS011;7490;63.708;20.368;2023-11-22T02:20:03;2.03;;;1.23;;
14797;SDS011;7490;63.708;20.368;2023-11-22T02:22:33;1.10;;;1.10;;
14797;SDS011;7490;63.708;20.368;2023-11-22T02:24:59;1.20;;;1.10;;
14797;SDS011;7490;63.708;20.368;2023-11-22T02:27:25;1.43;;;0.97;;
14797;SDS011;7490;63.708;20.368;2023-11-22T02:29:50;1.20;;;1.10;;
14797;SDS011;7490;63.708;20.368;2023-11-22T02:32:16;1.30;;;1.20;;
14797;SDS011;7490;63.708;20.368;2023-11-22T02:34:45;1.30;;;1.20;;
14797;SDS011;7490;63.708;20.368;2023-11-22T02:37:11;1.30;;;1.30;;
14797;SDS011;7490;63.708;20.368;2023-11-22T02:40:23;1.27;;;1.13;;
14797;SDS011;7490;63.708;20.368;2023-11-22T02:42:32;1.47;;;1.00;;
14797;SDS011;7490;63.708;20.368;2023-11-22T02:44:59;1.10;;;1.07;;
14797;SDS011;7490;63.708;20.368;2023-11-22T02:47:24;1.23;;;1.00;;
14797;SDS011;7490;63.708;20.368;2023-11-22T02:49:50;0.90;;;0.90;;
14797;SDS011;7490;63.708;20.368;2023-11-22T02:52:16;1.30;;;1.00;;
14797;SDS011;7490;63.708;20.368;2023-11-22T02:54:43;1.10;;;1.00;;
14797;SDS011;7490;63.708;20.368;2023-11-22T02:57:10;0.93;;;0.90;;
14797;SDS011;7490;63.708;20.368;2023-11-22T02:59:36;1.30;;;1.20;;
14797;SDS011;7490;63.708;20.368;2023-11-22T03:02:06;0.90;;;0.90;;
14797;SDS011;7490;63.708;20.368;2023-11-22T03:04:32;1.07;;;1.03;;
14797;SDS011;7490;63.708;20.368;2023-11-22T03:06:59;1.93;;;1.00;;
14797;SDS011;7490;63.708;20.368;2023-11-22T03:09:24;0.80;;;0.80;;
14797;SDS011;7490;63.708;20.368;2023-11-22T03:11:52;0.90;;;0.90;;
14797;SDS011;7490;63.708;20.368;2023-11-22T03:14:18;1.00;;;1.00;;
14797;SDS011;7490;63.708;20.368;2023-11-22T03:16:44;0.80;;;0.80;;
14797;SDS011;7490;63.708;20.368;2023-11-22T03:19:10;0.80;;;0.80;;
14797;SDS011;7490;63.708;20.368;2023-11-22T03:21:38;0.60;;;0.60;;
14797;SDS011;7490;63.708;20.368;2023-11-22T03:24:04;1.00;;;1.00;;
14797;SDS011;7490;63.708;20.368;2023-11-22T03:26:30;3.20;;;0.80;;
14797;SDS011;7490;63.708;20.368;2023-11-22T03:28:55;1.10;;;0.70;;
14797;SDS011;7490;63.708;20.368;2023-11-22T03:31:21;1.10;;;1.00;;
14797;SDS011;7490;63.708;20.368;2023-11-22T03:33:47;0.90;;;0.83;;
14797;SDS011;7490;63.708;20.368;2023-11-22T03:36:12;2.67;;;0.80;;
14797;SDS011;7490;63.708;20.368;2023-11-22T03:38:39;0.80;;;0.80;;
14797;SDS011;7490;63.708;20.368;2023-11-22T03:41:05;0.67;;;0.67;;
14797;SDS011;7490;63.708;20.368;2023-11-22T03:43:30;0.83;;;0.83;;
14797;SDS011;7490;63.708;20.368;2023-11-22T03:45:57;0.70;;;0.70;;
14797;SDS011;7490;63.708;20.368;2023-11-22T03:48:22;1.30;;;0.80;;
14797;SDS011;7490;63.708;20.368;2023-11-22T03:50:49;0.70;;;0.70;;
14797;SDS011;7490;63.708;20.368;2023-11-22T03:53:15;1.13;;;0.83;;
14797;SDS011;7490;63.708;20.368;2023-11-22T03:55:40;0.70;;;0.70;;
14797;SDS011;7490;63.708;20.368;2023-11-22T03:58:06;0.93;;;0.80;;
14797;SDS011;7490;63.708;20.368;2023-11-22T04:00:33;0.80;;;0.80;;
14797;SDS011;7490;63.708;20.368;2023-11-22T04:02:59;0.70;;;0.70;;
14797;SDS011;7490;63.708;20.368;2023-11-22T04:05:27;1.10;;;1.00;;
14797;SDS011;7490;63.708;20.368;2023-11-22T04:07:53;0.90;;;0.90;;
14797;SDS011;7490;63.708;20.368;2023-11-22T04:10:21;0.80;;;0.80;;
14797;SDS011;7490;63.708;20.368;2023-11-22T04:12:47;0.73;;;0.60;;
14797;SDS011;7490;63.708;20.368;2023-11-22T04:15:13;0.77;;;0.77;;
14797;SDS011;7490;63.708;20.368;2023-11-22T04:17:39;1.00;;;0.87;;
14797;SDS011;7490;63.708;20.368;2023-11-22T04:20:09;0.73;;;0.70;;
14797;SDS011;7490;63.708;20.368;2023-11-22T04:22:39;2.00;;;0.90;;
14797;SDS011;7490;63.708;20.368;2023-11-22T04:25:06;1.60;;;0.80;;
14797;SDS011;7490;63.708;20.368;2023-11-22T04:27:33;2.13;;;0.70;;
14797;SDS011;7490;63.708;20.368;2023-11-22T04:29:59;1.10;;;0.70;;
14797;SDS011;7490;63.708;20.368;2023-11-22T04:32:25;1.60;;;0.90;;
14797;SDS011;7490;63.708;20.368;2023-11-22T04:34:51;1.03;;;0.63;;
14797;SDS011;7490;63.708;20.368;2023-11-22T04:37:16;0.80;;;0.80;;
14797;SDS011;7490;63.708;20.368;2023-11-22T04:39:42;0.80;;;0.80;;
14797;SDS011;7490;63.708;20.368;2023-11-22T04:42:08;1.40;;;1.13;;
14797;SDS011;7490;63.708;20.368;2023-11-22T04:44:34;0.90;;;0.80;;
14797;SDS011;7490;63.708;20.368;2023-11-22T04:47:00;0.87;;;0.80;;
14797;SDS011;7490;63.708;20.368;2023-11-22T04:49:26;0.97;;;0.87;;
14797;SDS011;7490;63.708;20.368;2023-11-22T04:51:51;3.07;;;0.80;;
14797;SDS011;7490;63.708;20.368;2023-11-22T04:54:17;1.40;;;0.70;;
14797;SDS011;7490;63.708;20.368;2023-11-22T04:56:43;0.80;;;0.80;;
14797;SDS011;7490;63.708;20.368;2023-11-22T04:59:08;3.30;;;0.80;;
14797;SDS011;7490;63.708;20.368;2023-11-22T05:01:34;2.40;;;0.90;;
14797;SDS011;7490;63.708;20.368;2023-11-22T05:04:00;0.93;;;0.93;;
14797;SDS011;7490;63.708;20.368;2023-11-22T05:06:26;3.03;;;0.90;;
14797;SDS011;7490;63.708;20.368;2023-11-22T05:08:53;0.70;;;0.70;;
14797;SDS011;7490;63.708;20.368;2023-11-22T05:11:20;1.73;;;0.90;;
14797;SDS011;7490;63.708;20.368;2023-11-22T05:13:46;0.77;;;0.70;;
14797;SDS011;7490;63.708;20.368;2023-11-22T05:16:11;1.50;;;0.90;;
14797;SDS011;7490;63.708;20.368;2023-11-22T05:18:38;1.33;;;0.93;;
14797;SDS011;7490;63.708;20.368;2023-11-22T05:21:04;1.00;;;0.70;;
14797;SDS011;7490;63.708;20.368;2023-11-22T05:23:30;2.07;;;1.00;;
14797;SDS011;7490;63.708;20.368;2023-11-22T05:25:57;1.97;;;1.03;;
14797;SDS011;7490;63.708;20.368;2023-11-22T05:28:24;1.33;;;1.10;;
14797;SDS011;7490;63.708;20.368;2023-11-22T05:30:50;2.57;;;1.00;;
14797;SDS011;7490;63.708;20.368;2023-11-22T05:33:16;2.70;;;0.90;;
14797;SDS011;7490;63.708;20.368;2023-11-22T05:35:42;2.30;;;1.00;;
14797;SDS011;7490;63.708;20.368;2023-11-22T05:38:07;2.40;;;1.10;;
14797;SDS011;7490;63.708;20.368;2023-11-22T05:40:33;1.60;;;1.30;;
14797;SDS011;7490;63.708;20.368;2023-11-22T05:42:59;4.57;;;1.13;;
14797;SDS011;7490;63.708;20.368;2023-11-22T05:45:25;6.63;;;1.80;;
14797;SDS011;7490;63.708;20.368;2023-11-22T05:47:51;2.97;;;1.77;;
14797;SDS011;7490;63.708;20.368;2023-11-22T05:50:16;3.40;;;1.77;;
14797;SDS011;7490;63.708;20.368;2023-11-22T05:52:45;4.87;;;1.60;;
14797;SDS011;7490;63.708;20.368;2023-11-22T05:55:11;2.07;;;1.20;;
14797;SDS011;7490;63.708;20.368;2023-11-22T05:57:39;2.13;;;1.20;;
14797;SDS011;7490;63.708;20.368;2023-11-22T06:00:08;3.90;;;1.27;;
14797;SDS011;7490;63.708;20.368;2023-11-22T06:02:34;2.23;;;1.03;;
14797;SDS011;7490;63.708;20.368;2023-11-22T06:05:01;1.10;;;1.00;;
14797;SDS011;7490;63.708;20.368;2023-11-22T06:07:27;3.00;;;1.00;;
14797;SDS011;7490;63.708;20.368;2023-11-22T06:09:53;1.27;;;1.00;;
14797;SDS011;7490;63.708;20.368;2023-11-22T06:12:18;1.03;;;0.90;;
14797;SDS011;7490;63.708;20.368;2023-11-22T06:14:46;0.80;;;0.80;;
14797;SDS011;7490;63.708;20.368;2023-11-22T06:17:12;1.80;;;0.90;;
14797;SDS011;7490;63.708;20.368;2023-11-22T06:19:38;6.03;;;1.43;;
14797;SDS011;7490;63.708;20.368;2023-11-22T06:22:03;0.90;;;0.80;;
14797;SDS011;7490;63.708;20.368;2023-11-22T06:24:29;1.60;;;0.77;;
14797;SDS011;7490;63.708;20.368;2023-11-22T06:26:56;0.80;;;0.80;;
14797;SDS011;7490;63.708;20.368;2023-11-22T06:29:21;1.73;;;1.10;;
14797;SDS011;7490;63.708;20.368;2023-11-22T06:31:47;1.60;;;1.20;;
14797;SDS011;7490;63.708;20.368;2023-11-22T06:34:13;5.23;;;1.00;;
14797;SDS011;7490;63.708;20.368;2023-11-22T06:36:38;4.23;;;1.00;;
14797;SDS011;7490;63.708;20.368;2023-11-22T06:39:04;2.60;;;0.97;;
14797;SDS011;7490;63.708;20.368;2023-11-22T06:41:31;1.27;;;0.77;;
14797;SDS011;7490;63.708;20.368;2023-11-22T06:43:56;1.90;;;0.93;;
14797;SDS011;7490;63.708;20.368;2023-11-22T06:46:22;1.13;;;0.90;;
14797;SDS011;7490;63.708;20.368;2023-11-22T06:48:48;1.13;;;0.93;;
14797;SDS011;7490;63.708;20.368;2023-11-22T06:51:14;1.00;;;0.90;;
14797;SDS011;7490;63.708;20.368;2023-11-22T06:53:40;2.43;;;0.90;;
14797;SDS011;7490;63.708;20.368;2023-11-22T06:56:06;3.10;;;1.10;;
14797;SDS011;7490;63.708;20.368;2023-11-22T06:58:32;6.93;;;2.13;;
14797;SDS011;7490;63.708;20.368;2023-11-22T07:00:57;1.23;;;0.70;;
14797;SDS011;7490;63.708;20.368;2023-11-22T07:03:23;0.70;;;0.70;;
14797;SDS011;7490;63.708;20.368;2023-11-22T07:05:49;1.47;;;0.90;;
14797;SDS011;7490;63.708;20.368;2023-11-22T07:08:15;10.27;;;1.10;;
14797;SDS011;7490;63.708;20.368;2023-11-22T07:10:44;3.20;;;0.80;;
14797;SDS011;7490;63.708;20.368;2023-11-22T07:13:13;1.87;;;0.60;;
14797;SDS011;7490;63.708;20.368;2023-11-22T07:15:39;3.93;;;1.03;;
14797;SDS011;7490;63.708;20.368;2023-11-22T07:18:05;4.53;;;0.90;;
14797;SDS011;7490;63.708;20.368;2023-11-22T07:20:32;4.33;;;1.13;;
14797;SDS011;7490;63.708;20.368;2023-11-22T07:22:58;3.57;;;1.03;;
14797;SDS011;7490;63.708;20.368;2023-11-22T07:25:25;1.70;;;0.80;;
14797;SDS011;7490;63.708;20.368;2023-11-22T07:27:51;2.77;;;1.20;;
14797;SDS011;7490;63.708;20.368;2023-11-22T07:30:20;6.00;;;1.40;;
14797;SDS011;7490;63.708;20.368;2023-11-22T07:32:49;2.90;;;1.03;;
14797;SDS011;7490;63.708;20.368;2023-11-22T07:35:16;2.17;;;1.07;;
14797;SDS011;7490;63.708;20.368;2023-11-22T07:37:44;2.43;;;0.90;;
14797;SDS011;7490;63.708;20.368;2023-11-22T07:40:11;2.30;;;1.13;;
14797;SDS011;7490;63.708;20.368;2023-11-22T07:42:38;2.93;;;1.07;;
14797;SDS011;7490;63.708;20.368;2023-11-22T07:45:05;1.57;;;1.10;;
14797;SDS011;7490;63.708;20.368;2023-11-22T07:47:31;4.30;;;1.10;;
14797;SDS011;7490;63.708;20.368;2023-11-22T07:49:56;8.33;;;1.53;;
14797;SDS011;7490;63.708;20.368;2023-11-22T07:52:23;27.40;;;1.90;;
14797;SDS011;7490;63.708;20.368;2023-11-22T07:54:57;14.03;;;1.90;;
14797;SDS011;7490;63.708;20.368;2023-11-22T07:57:23;3.03;;;1.17;;
14797;SDS011;7490;63.708;20.368;2023-11-22T07:59:49;2.20;;;1.40;;
14797;SDS011;7490;63.708;20.368;2023-11-22T08:02:15;3.63;;;1.17;;
14797;SDS011;7490;63.708;20.368;2023-11-22T08:04:44;2.57;;;1.40;;
14797;SDS011;7490;63.708;20.368;2023-11-22T08:07:10;8.17;;;1.83;;
14797;SDS011;7490;63.708;20.368;2023-11-22T08:09:39;3.00;;;1.27;;
14797;SDS011;7490;63.708;20.368;2023-11-22T08:12:06;3.27;;;1.70;;
14797;SDS011;7490;63.708;20.368;2023-11-22T08:14:32;5.50;;;1.70;;
14797;SDS011;7490;63.708;20.368;2023-11-22T08:16:58;6.50;;;1.60;;
14797;SDS011;7490;63.708;20.368;2023-11-22T08:19:24;9.87;;;2.20;;
14797;SDS011;7490;63.708;20.368;2023-11-22T08:21:50;3.77;;;1.63;;
14797;SDS011;7490;63.708;20.368;2023-11-22T08:24:16;3.63;;;1.60;;
14797;SDS011;7490;63.708;20.368;2023-11-22T08:26:42;2.37;;;1.27;;
14797;SDS011;7490;63.708;20.368;2023-11-22T08:29:07;2.70;;;1.47;;
14797;SDS011;7490;63.708;20.368;2023-11-22T08:31:33;2.37;;;1.50;;
14797;SDS011;7490;63.708;20.368;2023-11-22T08:34:02;4.83;;;1.90;;
14797;SDS011;7490;63.708;20.368;2023-11-22T08:36:35;7.07;;;2.07;;
14797;SDS011;7490;63.708;20.368;2023-11-22T08:39:01;5.53;;;2.00;;
14797;SDS011;7490;63.708;20.368;2023-11-22T08:41:30;7.17;;;1.43;;
14797;SDS011;7490;63.708;20.368;2023-11-22T08:43:56;5.57;;;1.50;;
14797;SDS011;7490;63.708;20.368;2023-11-22T08:46:23;4.40;;;1.40;;
14797;SDS011;7490;63.708;20.368;2023-11-22T08:48:51;6.23;;;2.30;;
14797;SDS011;7490;63.708;20.368;2023-11-22T08:51:17;4.23;;;1.90;;
14797;SDS011;7490;63.708;20.368;2023-11-22T08:53:43;5.83;;;2.17;;
14797;SDS011;7490;63.708;20.368;2023-11-22T08:56:09;5.13;;;2.30;;
14797;SDS011;7490;63.708;20.368;2023-11-22T08:58:36;2.37;;;1.23;;
14797;SDS011;7490;63.708;20.368;2023-11-22T09:01:03;7.17;;;2.27;;
14797;SDS011;7490;63.708;20.368;2023-11-22T09:03:30;4.13;;;2.13;;
14797;SDS011;7490;63.708;20.368;2023-11-22T09:05:57;5.10;;;2.00;;
14797;SDS011;7490;63.708;20.368;2023-11-22T09:08:23;6.03;;;2.20;;
14797;SDS011;7490;63.708;20.368;2023-11-22T09:10:49;5.13;;;2.17;;
14797;SDS011;7490;63.708;20.368;2023-11-22T09:13:15;4.20;;;1.87;;
14797;SDS011;7490;63.708;20.368;2023-11-22T09:15:42;4.20;;;1.70;;
14797;SDS011;7490;63.708;20.368;2023-11-22T09:18:09;3.33;;;1.37;;
14797;SDS011;7490;63.708;20.368;2023-11-22T09:20:37;2.90;;;1.50;;
14797;SDS011;7490;63.708;20.368;2023-11-22T09:23:03;2.67;;;1.43;;
14797;SDS011;7490;63.708;20.368;2023-11-22T09:25:29;3.03;;;1.30;;
14797;SDS011;7490;63.708;20.368;2023-11-22T09:27:56;2.57;;;1.40;;
14797;SDS011;7490;63.708;20.368;2023-11-22T09:30:26;4.70;;;1.50;;
14797;SDS011;7490;63.708;20.368;2023-11-22T09:35:35;3.83;;;1.70;;
14797;SDS011;7490;63.708;20.368;2023-11-22T09:38:02;24.27;;;2.03;;
14797;SDS011;7490;63.708;20.368;2023-11-22T09:43:13;3.77;;;1.43;;
14797;SDS011;7490;63.708;20.368;2023-11-22T09:45:48;5.60;;;2.07;;
14797;SDS011;7490;63.708;20.368;2023-11-22T09:48:16;3.23;;;1.73;;
14797;SDS011;7490;63.708;20.368;2023-11-22T09:50:51;6.40;;;2.03;;
14797;SDS011;7490;63.708;20.368;2023-11-22T09:56:08;2.67;;;1.57;;
14797;SDS011;7490;63.708;20.368;2023-11-22T09:58:39;4.97;;;1.93;;
14797;SDS011;7490;63.708;20.368;2023-11-22T10:01:09;4.70;;;1.90;;
14797;SDS011;7490;63.708;20.368;2023-11-22T10:03:36;3.77;;;1.70;;
14797;SDS011;7490;63.708;20.368;2023-11-22T10:06:03;3.50;;;1.77;;
14797;SDS011;7490;63.708;20.368;2023-11-22T10:08:29;5.30;;;1.83;;
14797;SDS011;7490;63.708;20.368;2023-11-22T10:10:57;3.83;;;2.03;;
14797;SDS011;7490;63.708;20.368;2023-11-22T10:13:23;3.97;;;1.30;;
14797;SDS011;7490;63.708;20.368;2023-11-22T10:15:49;9.97;;;2.00;;
14797;SDS011;7490;63.708;20.368;2023-11-22T10:18:16;3.40;;;1.70;;
14797;SDS011;7490;63.708;20.368;2023-11-22T10:20:43;8.00;;;2.10;;
14797;SDS011;7490;63.708;20.368;2023-11-22T10:23:15;4.60;;;2.07;;
14797;SDS011;7490;63.708;20.368;2023-11-22T10:25:50;5.97;;;1.90;;
14797;SDS011;7490;63.708;20.368;2023-11-22T10:28:18;2.37;;;1.83;;
14797;SDS011;7490;63.708;20.368;2023-11-22T10:30:47;5.87;;;2.13;;
14797;SDS011;7490;63.708;20.368;2023-11-22T10:33:15;4.60;;;2.07;;
14797;SDS011;7490;63.708;20.368;2023-11-22T10:35:44;5.23;;;2.23;;
14797;SDS011;7490;63.708;20.368;2023-11-22T10:38:14;4.20;;;2.17;;
14797;SDS011;7490;63.708;20.368;2023-11-22T10:40:40;3.70;;;2.40;;
14797;SDS011;7490;63.708;20.368;2023-11-22T10:43:09;4.83;;;2.30;;
14797;SDS011;7490;63.708;20.368;2023-11-22T10:45:37;6.73;;;2.07;;
14797;SDS011;7490;63.708;20.368;2023-11-22T10:48:03;3.57;;;1.80;;
14797;SDS011;7490;63.708;20.368;2023-11-22T10:50:30;4.07;;;2.00;;
14797;SDS011;7490;63.708;20.368;2023-11-22T10:52:57;5.47;;;2.00;;
14797;SDS011;7490;63.708;20.368;2023-11-22T10:55:31;3.23;;;1.93;;
14797;SDS011;7490;63.708;20.368;2023-11-22T10:58:04;4.37;;;1.90;;
14797;SDS011;7490;63.708;20.368;2023-11-22T11:00:31;3.53;;;2.27;;
14797;SDS011;7490;63.708;20.368;2023-11-22T11:03:03;3.77;;;1.40;;
14797;SDS011;7490;63.708;20.368;2023-11-22T11:05:34;3.13;;;1.90;;
14797;SDS011;7490;63.708;20.368;2023-11-22T11:10:39;1.90;;;1.70;;
14797;SDS011;7490;63.708;20.368;2023-11-22T11:13:06;3.23;;;1.90;;
14797;SDS011;7490;63.708;20.368;2023-11-22T11:15:34;5.40;;;2.00;;
14797;SDS011;7490;63.708;20.368;2023-11-22T11:18:01;7.10;;;2.10;;
14797;SDS011;7490;63.708;20.368;2023-11-22T11:20:32;3.27;;;1.77;;
14797;SDS011;7490;63.708;20.368;2023-11-22T11:22:58;4.43;;;1.83;;
14797;SDS011;7490;63.708;20.368;2023-11-22T11:25:30;3.63;;;1.70;;
14797;SDS011;7490;63.708;20.368;2023-11-22T11:27:58;8.00;;;2.27;;
14797;SDS011;7490;63.708;20.368;2023-11-22T11:33:09;11.33;;;2.13;;
14797;SDS011;7490;63.708;20.368;2023-11-22T11:35:44;4.90;;;3.00;;
14797;SDS011;7490;63.708;20.368;2023-11-22T11:38:15;4.20;;;2.53;;
14797;SDS011;7490;63.708;20.368;2023-11-22T11:40:45;5.90;;;2.87;;
14797;SDS011;7490;63.708;20.368;2023-11-22T11:43:12;7.53;;;3.30;;
14797;SDS011;7490;63.708;20.368;2023-11-22T11:45:44;6.80;;;2.90;;
14797;SDS011;7490;63.708;20.368;2023-11-22T11:48:13;10.27;;;4.20;;
14797;SDS011;7490;63.708;20.368;2023-11-22T11:50:40;8.93;;;3.13;;
14797;SDS011;7490;63.708;20.368;2023-11-22T11:53:06;7.87;;;2.53;;
14797;SDS011;7490;63.708;20.368;2023-11-22T11:55:32;4.73;;;2.40;;
14797;SDS011;7490;63.708;20.368;2023-11-22T11:58:03;5.30;;;2.77;;
14797;SDS011;7490;63.708;20.368;2023-11-22T12:00:30;6.77;;;2.80;;
14797;SDS011;7490;63.708;20.368;2023-11-22T12:02:56;7.23;;;3.47;;
14797;SDS011;7490;63.708;20.368;2023-11-22T12:05:22;6.43;;;2.97;;
14797;SDS011;7490;63.708;20.368;2023-11-22T12:07:47;6.30;;;2.67;;
14797;SDS011;7490;63.708;20.368;2023-11-22T12:10:13;6.23;;;2.47;;
14797;SDS011;7490;63.708;20.368;2023-11-22T12:12:39;10.13;;;3.20;;
14797;SDS011;7490;63.708;20.368;2023-11-22T12:15:08;10.93;;;2.77;;
14797;SDS011;7490;63.708;20.368;2023-11-22T12:17:35;7.97;;;2.37;;
14797;SDS011;7490;63.708;20.368;2023-11-22T12:20:14;7.87;;;2.93;;
14797;SDS011;7490;63.708;20.368;2023-11-22T12:22:45;5.33;;;2.80;;
14797;SDS011;7490;63.708;20.368;2023-11-22T12:25:13;6.43;;;3.03;;
14797;SDS011;7490;63.708;20.368;2023-11-22T12:27:39;8.83;;;3.17;;
14797;SDS011;7490;63.708;20.368;2023-11-22T12:30:16;6.20;;;2.63;;
14797;SDS011;7490;63.708;20.368;2023-11-22T12:32:53;6.80;;;3.03;;
14797;SDS011;7490;63.708;20.368;2023-11-22T12:35:21;6.60;;;2.30;;
14797;SDS011;7490;63.708;20.368;2023-11-22T12:37:48;7.87;;;3.07;;
14797;SDS011;7490;63.708;20.368;2023-11-22T12:40:14;6.33;;;2.73;;
14797;SDS011;7490;63.708;20.368;2023-11-22T12:42:49;7.07;;;2.80;;
14797;SDS011;7490;63.708;20.368;2023-11-22T12:45:20;6.53;;;3.43;;
14797;SDS011;7490;63.708;20.368;2023-11-22T12:47:50;3.83;;;2.60;;
14797;SDS011;7490;63.708;20.368;2023-11-22T12:53:10;9.13;;;2.93;;
14797;SDS011;7490;63.708;20.368;2023-11-22T12:58:10;5.33;;;2.07;;
14797;SDS011;7490;63.708;20.368;2023-11-22T13:00:37;5.83;;;2.27;;
14797;SDS011;7490;63.708;20.368;2023-11-22T13:03:05;3.97;;;2.60;;
14797;SDS011;7490;63.708;20.368;2023-11-22T13:05:37;5.67;;;1.90;;
14797;SDS011;7490;63.708;20.368;2023-11-22T13:08:03;5.70;;;1.83;;
14797;SDS011;7490;63.708;20.368;2023-11-22T13:10:29;4.07;;;1.70;;
14797;SDS011;7490;63.708;20.368;2023-11-22T13:12:55;5.03;;;2.27;;
14797;SDS011;7490;63.708;20.368;2023-11-22T13:15:22;5.60;;;1.50;;
14797;SDS011;7490;63.708;20.368;2023-11-22T13:17:52;3.47;;;1.73;;
14797;SDS011;7490;63.708;20.368;2023-11-22T13:20:21;4.13;;;1.43;;
14797;SDS011;7490;63.708;20.368;2023-11-22T13:22:48;2.83;;;1.50;;
14797;SDS011;7490;63.708;20.368;2023-11-22T13:25:14;4.13;;;1.40;;
14797;SDS011;7490;63.708;20.368;2023-11-22T13:27:39;8.70;;;2.13;;
14797;SDS011;7490;63.708;20.368;2023-11-22T13:30:06;3.53;;;1.63;;
14797;SDS011;7490;63.708;20.368;2023-11-22T13:32:32;6.23;;;1.80;;
14797;SDS011;7490;63.708;20.368;2023-11-22T13:34:58;4.23;;;1.50;;
14797;SDS011;7490;63.708;20.368;2023-11-22T13:37:24;4.23;;;1.40;;
14797;SDS011;7490;63.708;20.368;2023-11-22T13:39:50;7.20;;;1.30;;
14797;SDS011;7490;63.708;20.368;2023-11-22T13:42:17;3.80;;;1.00;;
14797;SDS011;7490;63.708;20.368;2023-11-22T13:44:42;6.00;;;1.37;;
14797;SDS011;7490;63.708;20.368;2023-11-22T13:47:12;5.07;;;1.20;;
14797;SDS011;7490;63.708;20.368;2023-11-22T13:49:39;3.33;;;0.97;;
14797;SDS011;7490;63.708;20.368;2023-11-22T13:52:05;5.80;;;1.10;;
14797;SDS011;7490;63.708;20.368;2023-11-22T13:54:31;1.77;;;1.10;;
14797;SDS011;7490;63.708;20.368;2023-11-22T13:57:03;1.77;;;0.70;;
14797;SDS011;7490;63.708;20.368;2023-11-22T13:59:29;6.90;;;1.20;;
14797;SDS011;7490;63.708;20.368;2023-11-22T14:01:54;4.80;;;1.10;;
14797;SDS011;7490;63.708;20.368;2023-11-22T14:04:20;7.03;;;1.87;;
14797;SDS011;7490;63.708;20.368;2023-11-22T14:06:46;7.40;;;1.60;;
14797;SDS011;7490;63.708;20.368;2023-11-22T14:09:11;2.23;;;1.13;;
14797;SDS011;7490;63.708;20.368;2023-11-22T14:11:39;5.33;;;1.67;;
14797;SDS011;7490;63.708;20.368;2023-11-22T14:14:05;3.33;;;1.60;;
14797;SDS011;7490;63.708;20.368;2023-11-22T14:16:31;5.63;;;1.47;;
14797;SDS011;7490;63.708;20.368;2023-11-22T14:18:56;6.07;;;1.40;;
14797;SDS011;7490;63.708;20.368;2023-11-22T14:21:25;7.40;;;1.37;;
14797;SDS011;7490;63.708;20.368;2023-11-22T14:23:50;5.30;;;1.20;;
14797;SDS011;7490;63.708;20.368;2023-11-22T14:26:18;3.50;;;1.27;;
14797;SDS011;7490;63.708;20.368;2023-11-22T14:28:43;4.80;;;1.37;;
14797;SDS011;7490;63.708;20.368;2023-11-22T14:31:09;4.77;;;1.20;;
14797;SDS011;7490;63.708;20.368;2023-11-22T14:33:35;5.67;;;1.73;;
14797;SDS011;7490;63.708;20.368;2023-11-22T14:36:01;7.87;;;1.53;;
14797;SDS011;7490;63.708;20.368;2023-11-22T14:38:27;4.03;;;1.13;;
14797;SDS011;7490;63.708;20.368;2023-11-22T14:40:53;4.33;;;1.10;;
14797;SDS011;7490;63.708;20.368;2023-11-22T14:43:19;3.43;;;1.23;;
14797;SDS011;7490;63.708;20.368;2023-11-22T14:45:44;3.67;;;0.80;;
14797;SDS011;7490;63.708;20.368;2023-11-22T14:48:10;3.33;;;1.03;;
14797;SDS011;7490;63.708;20.368;2023-11-22T14:50:38;5.50;;;1.07;;
14797;SDS011;7490;63.708;20.368;2023-11-22T14:53:06;4.63;;;1.17;;
14797;SDS011;7490;63.708;20.368;2023-11-22T14:55:35;2.03;;;0.90;;
14797;SDS011;7490;63.708;20.368;2023-11-22T14:58:05;3.53;;;1.03;;
14797;SDS011;7490;63.708;20.368;2023-11-22T15:00:31;4.13;;;0.90;;
14797;SDS011;7490;63.708;20.368;2023-11-22T15:02:57;6.20;;;1.20;;
14797;SDS011;7490;63.708;20.368;2023-11-22T15:05:23;2.40;;;0.93;;